SANT/TUC METAR and TAF weather

Enter ICAO airport designator
Station Type Date Time Source
SANT METAR 2019/12/12 09:00 UTC NOAA

SANT 120900Z 36006KT CAVOK 25/17 Q1003


Station Type Date Time Source
SANT Decoded METAR 2019/12/12 09:00 UTC NOAA

Tucuman Aerodrome, Argentina (SANT) 26-51S 065-06W 450M
Dec 12, 2019 - 04:00 AM EST / 2019.12.12 0900 UTC
Wind: from the N (360 degrees) at 7 MPH (6 KT):0
Visibility: greater than 7 mile(s):0
Temperature: 77 F (25 C)
Dew Point: 62 F (17 C)
Relative Humidity: 61%
Pressure (altimeter): 29.62 in. Hg (1003 hPa)
ob: SANT 120900Z 36006KT CAVOK 25/17 Q1003
cycle: 9

Station Type Date Time Source
SANT TAF 2019/12/12 06:03 UTC NOAA

TAF TAF SANT 120500Z 1206/1306 36005KT CAVOK TX32/1219Z TN24/1209Z
BECMG 1209/1212 21020KT 9999 SCT030 PROB40 1215/1218 16020KT 5000 TSRA BKN025 FEW040CB

Example: see airport list